sensor_id;sensor_type;location;lat;lon;timestamp;P1;durP1;ratioP1;P2;durP2;ratioP2
40653;SDS011;26344;45.532;9.232;2023-04-15T13:48:34;788.28;;;719.53;;
40653;SDS011;26344;45.532;9.232;2023-04-15T13:51:00;727.17;;;665.63;;
40653;SDS011;26344;45.532;9.232;2023-04-15T13:53:26;727.67;;;666.42;;
40653;SDS011;26344;45.532;9.232;2023-04-15T13:55:52;743.92;;;682.40;;
40653;SDS011;26344;45.532;9.232;2023-04-15T13:58:18;685.90;;;626.83;;
40653;SDS011;26344;45.532;9.232;2023-04-15T14:00:44;708.03;;;650.35;;
40653;SDS011;26344;45.532;9.232;2023-04-15T14:03:10;705.70;;;644.22;;
40653;SDS011;26344;45.532;9.232;2023-04-15T14:05:39;692.90;;;635.70;;
40653;SDS011;26344;45.532;9.232;2023-04-15T14:15:22;8.75;;;2.30;;
40653;SDS011;26344;45.532;9.232;2023-04-15T14:17:48;152.55;;;139.55;;
40653;SDS011;26344;45.532;9.232;2023-04-15T14:20:14;6.50;;;1.98;;
40653;SDS011;26344;45.532;9.232;2023-04-15T14:22:40;8.70;;;2.20;;
40653;SDS011;26344;45.532;9.232;2023-04-15T14:25:06;7.90;;;2.60;;
40653;SDS011;26344;45.532;9.232;2023-04-15T14:27:32;7.63;;;2.30;;
40653;SDS011;26344;45.532;9.232;2023-04-15T14:29:58;5.20;;;1.70;;
40653;SDS011;26344;45.532;9.232;2023-04-15T14:32:24;7.60;;;2.13;;
40653;SDS011;26344;45.532;9.232;2023-04-15T14:34:51;5.25;;;1.90;;
40653;SDS011;26344;45.532;9.232;2023-04-15T14:37:17;6.93;;;2.30;;
40653;SDS011;26344;45.532;9.232;2023-04-15T14:39:43;5.95;;;2.40;;
40653;SDS011;26344;45.532;9.232;2023-04-15T14:42:09;7.97;;;2.03;;
40653;SDS011;26344;45.532;9.232;2023-04-15T14:44:35;8.48;;;2.50;;
40653;SDS011;26344;45.532;9.232;2023-04-15T14:47:01;9.73;;;2.28;;
40653;SDS011;26344;45.532;9.232;2023-04-15T14:49:27;8.00;;;2.15;;
40653;SDS011;26344;45.532;9.232;2023-04-15T14:51:54;8.05;;;3.10;;
40653;SDS011;26344;45.532;9.232;2023-04-15T14:54:20;10.40;;;3.47;;
40653;SDS011;26344;45.532;9.232;2023-04-15T14:56:46;8.57;;;2.55;;
40653;SDS011;26344;45.532;9.232;2023-04-15T14:59:12;60.22;;;21.92;;
40653;SDS011;26344;45.532;9.232;2023-04-15T15:01:38;5.70;;;2.63;;
40653;SDS011;26344;45.532;9.232;2023-04-15T15:04:04;8.13;;;2.65;;
40653;SDS011;26344;45.532;9.232;2023-04-15T15:06:32;10.55;;;3.22;;
40653;SDS011;26344;45.532;9.232;2023-04-15T15:08:58;9.93;;;2.92;;
40653;SDS011;26344;45.532;9.232;2023-04-15T15:11:25;8.02;;;4.55;;
40653;SDS011;26344;45.532;9.232;2023-04-15T15:13:51;5.75;;;2.80;;
40653;SDS011;26344;45.532;9.232;2023-04-15T15:16:17;6.88;;;2.63;;
40653;SDS011;26344;45.532;9.232;2023-04-15T15:18:43;6.72;;;2.80;;
40653;SDS011;26344;45.532;9.232;2023-04-15T15:21:09;7.30;;;2.72;;
40653;SDS011;26344;45.532;9.232;2023-04-15T15:23:35;9.07;;;2.80;;
40653;SDS011;26344;45.532;9.232;2023-04-15T15:26:01;10.25;;;2.83;;
40653;SDS011;26344;45.532;9.232;2023-04-15T15:28:27;9.25;;;2.92;;
40653;SDS011;26344;45.532;9.232;2023-04-15T15:30:53;6.13;;;2.60;;
40653;SDS011;26344;45.532;9.232;2023-04-15T15:33:19;8.07;;;3.00;;
40653;SDS011;26344;45.532;9.232;2023-04-15T15:35:45;10.95;;;3.10;;
40653;SDS011;26344;45.532;9.232;2023-04-15T15:38:11;9.02;;;3.05;;
40653;SDS011;26344;45.532;9.232;2023-04-15T15:40:38;10.50;;;3.28;;
40653;SDS011;26344;45.532;9.232;2023-04-15T15:43:03;10.20;;;3.33;;
40653;SDS011;26344;45.532;9.232;2023-04-15T15:45:29;6.70;;;3.03;;
40653;SDS011;26344;45.532;9.232;2023-04-15T15:47:56;6.70;;;3.17;;
40653;SDS011;26344;45.532;9.232;2023-04-15T15:50:23;10.93;;;2.60;;
40653;SDS011;26344;45.532;9.232;2023-04-15T15:52:48;5.85;;;2.50;;
40653;SDS011;26344;45.532;9.232;2023-04-15T15:55:14;7.50;;;3.03;;
40653;SDS011;26344;45.532;9.232;2023-04-15T15:57:40;8.90;;;3.08;;
40653;SDS011;26344;45.532;9.232;2023-04-15T16:00:06;9.52;;;2.78;;
40653;SDS011;26344;45.532;9.232;2023-04-15T16:02:33;8.00;;;2.70;;
40653;SDS011;26344;45.532;9.232;2023-04-15T16:04:59;6.78;;;2.50;;
40653;SDS011;26344;45.532;9.232;2023-04-15T16:07:26;10.30;;;3.08;;
40653;SDS011;26344;45.532;9.232;2023-04-15T16:09:52;10.57;;;2.80;;
40653;SDS011;26344;45.532;9.232;2023-04-15T16:12:18;6.60;;;2.80;;
40653;SDS011;26344;45.532;9.232;2023-04-15T16:14:44;8.75;;;3.03;;
40653;SDS011;26344;45.532;9.232;2023-04-15T16:17:11;10.55;;;3.13;;
40653;SDS011;26344;45.532;9.232;2023-04-15T16:19:37;7.70;;;2.97;;
40653;SDS011;26344;45.532;9.232;2023-04-15T16:22:03;5.50;;;2.63;;
40653;SDS011;26344;45.532;9.232;2023-04-15T16:24:29;11.05;;;3.10;;
40653;SDS011;26344;45.532;9.232;2023-04-15T16:26:55;6.97;;;3.10;;
40653;SDS011;26344;45.532;9.232;2023-04-15T16:29:23;6.93;;;4.05;;
40653;SDS011;26344;45.532;9.232;2023-04-15T16:31:49;7.45;;;3.65;;
40653;SDS011;26344;45.532;9.232;2023-04-15T16:34:15;5.85;;;2.88;;
40653;SDS011;26344;45.532;9.232;2023-04-15T16:36:42;8.82;;;3.50;;
40653;SDS011;26344;45.532;9.232;2023-04-15T16:39:08;7.93;;;2.92;;
40653;SDS011;26344;45.532;9.232;2023-04-15T16:41:34;8.80;;;3.20;;
40653;SDS011;26344;45.532;9.232;2023-04-15T16:44:02;6.53;;;3.33;;
40653;SDS011;26344;45.532;9.232;2023-04-15T16:46:28;8.60;;;3.40;;
40653;SDS011;26344;45.532;9.232;2023-04-15T16:48:54;7.22;;;3.53;;
40653;SDS011;26344;45.532;9.232;2023-04-15T16:51:20;8.75;;;3.53;;
40653;SDS011;26344;45.532;9.232;2023-04-15T16:53:47;7.40;;;3.38;;
40653;SDS011;26344;45.532;9.232;2023-04-15T16:56:13;7.50;;;3.42;;
40653;SDS011;26344;45.532;9.232;2023-04-15T16:58:38;8.85;;;3.35;;
40653;SDS011;26344;45.532;9.232;2023-04-15T17:01:04;9.90;;;3.50;;
40653;SDS011;26344;45.532;9.232;2023-04-15T17:03:31;7.55;;;3.35;;
40653;SDS011;26344;45.532;9.232;2023-04-15T17:05:57;12.57;;;3.83;;
40653;SDS011;26344;45.532;9.232;2023-04-15T17:08:23;9.63;;;3.78;;
40653;SDS011;26344;45.532;9.232;2023-04-15T17:10:48;7.68;;;3.85;;
40653;SDS011;26344;45.532;9.232;2023-04-15T17:13:15;7.97;;;3.80;;
40653;SDS011;26344;45.532;9.232;2023-04-15T17:15:41;8.80;;;4.22;;
40653;SDS011;26344;45.532;9.232;2023-04-15T17:18:07;8.77;;;3.78;;
40653;SDS011;26344;45.532;9.232;2023-04-15T17:20:34;8.20;;;3.72;;
40653;SDS011;26344;45.532;9.232;2023-04-15T17:23:00;10.32;;;4.47;;
40653;SDS011;26344;45.532;9.232;2023-04-15T17:25:26;9.38;;;4.57;;
40653;SDS011;26344;45.532;9.232;2023-04-15T17:27:52;8.95;;;4.90;;
40653;SDS011;26344;45.532;9.232;2023-04-15T17:30:18;8.00;;;4.60;;
40653;SDS011;26344;45.532;9.232;2023-04-15T17:32:44;6.82;;;4.80;;
40653;SDS011;26344;45.532;9.232;2023-04-15T17:35:10;11.18;;;6.30;;
40653;SDS011;26344;45.532;9.232;2023-04-15T17:37:36;10.38;;;5.85;;
40653;SDS011;26344;45.532;9.232;2023-04-15T17:40:02;8.95;;;5.53;;
40653;SDS011;26344;45.532;9.232;2023-04-15T17:42:28;10.68;;;5.30;;
40653;SDS011;26344;45.532;9.232;2023-04-15T17:44:54;8.05;;;4.30;;
40653;SDS011;26344;45.532;9.232;2023-04-15T17:47:20;6.65;;;4.25;;
40653;SDS011;26344;45.532;9.232;2023-04-15T17:49:46;6.20;;;3.92;;
40653;SDS011;26344;45.532;9.232;2023-04-15T17:52:12;7.22;;;3.03;;
40653;SDS011;26344;45.532;9.232;2023-04-15T17:54:38;5.30;;;2.55;;
40653;SDS011;26344;45.532;9.232;2023-04-15T17:57:04;4.57;;;2.50;;
40653;SDS011;26344;45.532;9.232;2023-04-15T17:59:30;4.53;;;2.45;;
40653;SDS011;26344;45.532;9.232;2023-04-15T18:01:58;3.97;;;2.20;;
40653;SDS011;26344;45.532;9.232;2023-04-15T18:04:24;3.17;;;2.08;;
40653;SDS011;26344;45.532;9.232;2023-04-15T18:06:50;4.60;;;2.38;;
40653;SDS011;26344;45.532;9.232;2023-04-15T18:09:16;3.70;;;2.28;;
40653;SDS011;26344;45.532;9.232;2023-04-15T18:11:42;4.22;;;2.20;;
40653;SDS011;26344;45.532;9.232;2023-04-15T18:14:09;6.90;;;2.53;;
40653;SDS011;26344;45.532;9.232;2023-04-15T18:16:35;5.70;;;3.47;;
40653;SDS011;26344;45.532;9.232;2023-04-15T18:19:01;6.28;;;2.83;;
40653;SDS011;26344;45.532;9.232;2023-04-15T18:21:27;5.15;;;2.58;;
40653;SDS011;26344;45.532;9.232;2023-04-15T18:23:53;3.90;;;2.50;;
40653;SDS011;26344;45.532;9.232;2023-04-15T18:26:19;6.05;;;3.00;;
40653;SDS011;26344;45.532;9.232;2023-04-15T18:28:45;3.50;;;2.30;;
40653;SDS011;26344;45.532;9.232;2023-04-15T18:31:12;3.80;;;2.45;;
40653;SDS011;26344;45.532;9.232;2023-04-15T18:33:38;5.07;;;2.47;;
40653;SDS011;26344;45.532;9.232;2023-04-15T18:36:04;6.57;;;2.55;;
40653;SDS011;26344;45.532;9.232;2023-04-15T18:38:30;5.80;;;2.25;;
40653;SDS011;26344;45.532;9.232;2023-04-15T18:40:56;4.53;;;2.20;;
40653;SDS011;26344;45.532;9.232;2023-04-15T18:43:22;4.00;;;2.40;;
40653;SDS011;26344;45.532;9.232;2023-04-15T18:45:50;5.70;;;2.45;;
40653;SDS011;26344;45.532;9.232;2023-04-15T18:48:18;4.40;;;2.58;;
40653;SDS011;26344;45.532;9.232;2023-04-15T18:50:45;3.72;;;2.85;;
40653;SDS011;26344;45.532;9.232;2023-04-15T18:53:11;4.90;;;3.00;;
40653;SDS011;26344;45.532;9.232;2023-04-15T18:55:39;5.45;;;3.17;;
40653;SDS011;26344;45.532;9.232;2023-04-15T18:58:06;7.20;;;2.95;;
40653;SDS011;26344;45.532;9.232;2023-04-15T19:00:32;372.60;;;118.93;;
40653;SDS011;26344;45.532;9.232;2023-04-15T19:03:00;370.48;;;123.97;;
40653;SDS011;26344;45.532;9.232;2023-04-15T19:05:26;379.60;;;147.18;;
40653;SDS011;26344;45.532;9.232;2023-04-15T19:07:52;363.55;;;115.53;;
40653;SDS011;26344;45.532;9.232;2023-04-15T19:10:18;370.38;;;111.93;;
40653;SDS011;26344;45.532;9.232;2023-04-15T19:12:44;377.17;;;104.47;;
40653;SDS011;26344;45.532;9.232;2023-04-15T19:15:10;399.70;;;132.13;;
40653;SDS011;26344;45.532;9.232;2023-04-15T19:17:36;397.33;;;122.80;;
40653;SDS011;26344;45.532;9.232;2023-04-15T19:20:02;374.52;;;91.00;;
40653;SDS011;26344;45.532;9.232;2023-04-15T19:22:29;268.45;;;71.43;;
40653;SDS011;26344;45.532;9.232;2023-04-15T19:24:55;383.63;;;89.22;;
40653;SDS011;26344;45.532;9.232;2023-04-15T19:27:21;386.92;;;101.63;;
40653;SDS011;26344;45.532;9.232;2023-04-15T19:29:47;381.17;;;82.43;;
40653;SDS011;26344;45.532;9.232;2023-04-15T19:32:13;380.77;;;80.72;;
40653;SDS011;26344;45.532;9.232;2023-04-15T19:34:40;379.17;;;85.18;;
40653;SDS011;26344;45.532;9.232;2023-04-15T19:37:06;373.83;;;83.88;;
40653;SDS011;26344;45.532;9.232;2023-04-15T19:39:32;380.15;;;88.95;;
40653;SDS011;26344;45.532;9.232;2023-04-15T19:42:01;371.38;;;88.35;;
40653;SDS011;26344;45.532;9.232;2023-04-15T19:44:27;371.02;;;88.80;;
40653;SDS011;26344;45.532;9.232;2023-04-15T19:46:53;374.50;;;90.60;;
40653;SDS011;26344;45.532;9.232;2023-04-15T19:49:19;369.67;;;86.22;;
40653;SDS011;26344;45.532;9.232;2023-04-15T19:51:51;375.58;;;91.03;;
40653;SDS011;26344;45.532;9.232;2023-04-15T19:54:17;367.48;;;85.50;;
40653;SDS011;26344;45.532;9.232;2023-04-15T19:56:43;379.08;;;91.30;;
40653;SDS011;26344;45.532;9.232;2023-04-15T19:59:09;389.08;;;103.25;;
40653;SDS011;26344;45.532;9.232;2023-04-15T20:01:36;379.55;;;88.68;;
40653;SDS011;26344;45.532;9.232;2023-04-15T20:04:03;393.52;;;94.43;;
40653;SDS011;26344;45.532;9.232;2023-04-15T20:06:29;380.15;;;92.60;;
40653;SDS011;26344;45.532;9.232;2023-04-15T20:08:55;382.15;;;91.85;;
40653;SDS011;26344;45.532;9.232;2023-04-15T20:11:21;381.77;;;98.13;;
40653;SDS011;26344;45.532;9.232;2023-04-15T20:13:53;374.63;;;89.25;;
40653;SDS011;26344;45.532;9.232;2023-04-15T20:16:18;369.77;;;87.13;;
40653;SDS011;26344;45.532;9.232;2023-04-15T20:18:48;381.65;;;97.93;;
40653;SDS011;26344;45.532;9.232;2023-04-15T20:23:40;390.20;;;119.15;;
40653;SDS011;26344;45.532;9.232;2023-04-15T20:26:06;388.92;;;112.20;;
40653;SDS011;26344;45.532;9.232;2023-04-15T20:28:32;387.48;;;112.28;;
40653;SDS011;26344;45.532;9.232;2023-04-15T20:31:01;382.92;;;112.35;;
40653;SDS011;26344;45.532;9.232;2023-04-15T20:33:27;248.93;;;64.32;;
40653;SDS011;26344;45.532;9.232;2023-04-15T20:35:54;373.42;;;84.53;;
40653;SDS011;26344;45.532;9.232;2023-04-15T20:38:20;387.52;;;89.53;;
40653;SDS011;26344;45.532;9.232;2023-04-15T20:40:46;387.67;;;89.25;;
40653;SDS011;26344;45.532;9.232;2023-04-15T20:43:12;391.80;;;94.90;;
40653;SDS011;26344;45.532;9.232;2023-04-15T20:45:38;380.75;;;92.40;;
40653;SDS011;26344;45.532;9.232;2023-04-15T20:48:04;380.02;;;93.35;;
40653;SDS011;26344;45.532;9.232;2023-04-15T20:50:30;374.52;;;91.10;;
40653;SDS011;26344;45.532;9.232;2023-04-15T20:52:57;378.48;;;95.43;;
40653;SDS011;26344;45.532;9.232;2023-04-15T20:55:23;374.77;;;88.90;;
40653;SDS011;26344;45.532;9.232;2023-04-15T20:57:49;368.27;;;82.90;;
40653;SDS011;26344;45.532;9.232;2023-04-15T21:00:15;377.27;;;86.82;;
40653;SDS011;26344;45.532;9.232;2023-04-15T21:02:42;363.23;;;79.88;;
40653;SDS011;26344;45.532;9.232;2023-04-15T21:05:08;378.60;;;85.43;;
40653;SDS011;26344;45.532;9.232;2023-04-15T21:07:34;377.95;;;93.07;;
40653;SDS011;26344;45.532;9.232;2023-04-15T21:10:00;386.35;;;93.93;;
40653;SDS011;26344;45.532;9.232;2023-04-15T21:12:26;397.63;;;97.18;;
40653;SDS011;26344;45.532;9.232;2023-04-15T21:14:52;394.15;;;103.70;;
40653;SDS011;26344;45.532;9.232;2023-04-15T21:17:18;390.55;;;103.97;;
40653;SDS011;26344;45.532;9.232;2023-04-15T21:19:44;377.55;;;96.22;;
40653;SDS011;26344;45.532;9.232;2023-04-15T21:22:10;378.77;;;96.82;;
40653;SDS011;26344;45.532;9.232;2023-04-15T21:24:36;391.67;;;111.18;;
40653;SDS011;26344;45.532;9.232;2023-04-15T21:27:02;380.63;;;93.55;;
40653;SDS011;26344;45.532;9.232;2023-04-15T21:29:28;379.90;;;90.70;;
40653;SDS011;26344;45.532;9.232;2023-04-15T21:31:54;375.85;;;85.88;;
40653;SDS011;26344;45.532;9.232;2023-04-15T21:34:20;374.92;;;87.75;;
40653;SDS011;26344;45.532;9.232;2023-04-15T21:36:46;369.63;;;84.55;;
40653;SDS011;26344;45.532;9.232;2023-04-15T21:39:12;388.48;;;97.97;;
40653;SDS011;26344;45.532;9.232;2023-04-15T21:41:38;383.92;;;91.03;;
40653;SDS011;26344;45.532;9.232;2023-04-15T21:44:04;403.83;;;110.85;;
40653;SDS011;26344;45.532;9.232;2023-04-15T21:46:33;387.63;;;97.55;;
40653;SDS011;26344;45.532;9.232;2023-04-15T21:48:59;398.05;;;107.63;;
40653;SDS011;26344;45.532;9.232;2023-04-15T21:51:25;387.98;;;95.53;;
40653;SDS011;26344;45.532;9.232;2023-04-15T21:53:51;379.23;;;89.53;;
40653;SDS011;26344;45.532;9.232;2023-04-15T21:56:17;398.67;;;114.75;;
40653;SDS011;26344;45.532;9.232;2023-04-15T21:58:47;377.38;;;92.97;;
40653;SDS011;26344;45.532;9.232;2023-04-15T22:01:12;385.88;;;100.30;;
40653;SDS011;26344;45.532;9.232;2023-04-15T22:03:38;375.63;;;97.63;;
40653;SDS011;26344;45.532;9.232;2023-04-15T22:06:05;373.70;;;99.85;;
40653;SDS011;26344;45.532;9.232;2023-04-15T22:08:31;413.30;;;118.53;;
40653;SDS011;26344;45.532;9.232;2023-04-15T22:10:57;373.13;;;95.18;;
40653;SDS011;26344;45.532;9.232;2023-04-15T22:13:23;384.65;;;102.13;;
40653;SDS011;26344;45.532;9.232;2023-04-15T22:15:49;390.77;;;104.15;;
40653;SDS011;26344;45.532;9.232;2023-04-15T22:18:15;399.27;;;106.05;;
40653;SDS011;26344;45.532;9.232;2023-04-15T22:20:41;392.65;;;103.63;;
40653;SDS011;26344;45.532;9.232;2023-04-15T22:23:07;388.23;;;105.05;;
40653;SDS011;26344;45.532;9.232;2023-04-15T22:25:34;377.95;;;100.88;;
40653;SDS011;26344;45.532;9.232;2023-04-15T22:28:01;372.52;;;94.30;;
40653;SDS011;26344;45.532;9.232;2023-04-15T22:30:27;368.02;;;93.32;;
40653;SDS011;26344;45.532;9.232;2023-04-15T22:32:53;375.10;;;97.85;;
40653;SDS011;26344;45.532;9.232;2023-04-15T22:35:19;381.33;;;110.18;;
40653;SDS011;26344;45.532;9.232;2023-04-15T22:37:45;389.15;;;108.22;;
40653;SDS011;26344;45.532;9.232;2023-04-15T22:40:12;381.08;;;107.55;;
40653;SDS011;26344;45.532;9.232;2023-04-15T22:42:38;378.25;;;103.18;;
40653;SDS011;26344;45.532;9.232;2023-04-15T22:45:04;384.50;;;100.88;;
40653;SDS011;26344;45.532;9.232;2023-04-15T22:47:30;389.10;;;100.88;;
40653;SDS011;26344;45.532;9.232;2023-04-15T22:49:56;390.90;;;102.88;;
40653;SDS011;26344;45.532;9.232;2023-04-15T22:52:22;382.30;;;97.90;;
40653;SDS011;26344;45.532;9.232;2023-04-15T22:54:48;386.85;;;105.53;;
40653;SDS011;26344;45.532;9.232;2023-04-15T22:57:14;372.75;;;92.90;;
40653;SDS011;26344;45.532;9.232;2023-04-15T22:59:40;399.65;;;133.95;;
40653;SDS011;26344;45.532;9.232;2023-04-15T23:02:06;368.67;;;85.05;;
40653;SDS011;26344;45.532;9.232;2023-04-15T23:04:32;377.75;;;94.13;;
40653;SDS011;26344;45.532;9.232;2023-04-15T23:06:58;370.13;;;82.45;;
40653;SDS011;26344;45.532;9.232;2023-04-15T23:09:24;369.55;;;83.13;;
40653;SDS011;26344;45.532;9.232;2023-04-15T23:11:51;410.27;;;128.35;;
40653;SDS011;26344;45.532;9.232;2023-04-15T23:14:17;372.83;;;88.20;;
40653;SDS011;26344;45.532;9.232;2023-04-15T23:16:43;375.02;;;86.72;;
40653;SDS011;26344;45.532;9.232;2023-04-15T23:19:09;380.67;;;89.20;;
40653;SDS011;26344;45.532;9.232;2023-04-15T23:21:35;385.00;;;90.00;;
40653;SDS011;26344;45.532;9.232;2023-04-15T23:24:01;373.33;;;83.50;;
40653;SDS011;26344;45.532;9.232;2023-04-15T23:26:27;369.95;;;91.13;;
40653;SDS011;26344;45.532;9.232;2023-04-15T23:28:53;373.38;;;87.63;;
40653;SDS011;26344;45.532;9.232;2023-04-15T23:31:19;367.17;;;82.00;;
40653;SDS011;26344;45.532;9.232;2023-04-15T23:33:45;374.33;;;86.20;;
40653;SDS011;26344;45.532;9.232;2023-04-15T23:36:11;369.75;;;80.95;;
40653;SDS011;26344;45.532;9.232;2023-04-15T23:38:37;367.15;;;83.20;;
40653;SDS011;26344;45.532;9.232;2023-04-15T23:41:03;362.67;;;80.43;;
40653;SDS011;26344;45.532;9.232;2023-04-15T23:43:29;367.90;;;82.85;;
40653;SDS011;26344;45.532;9.232;2023-04-15T23:45:55;368.88;;;80.20;;
40653;SDS011;26344;45.532;9.232;2023-04-15T23:48:21;374.02;;;83.55;;
40653;SDS011;26344;45.532;9.232;2023-04-15T23:50:48;383.45;;;89.10;;
40653;SDS011;26344;45.532;9.232;2023-04-15T23:53:14;385.85;;;90.45;;
40653;SDS011;26344;45.532;9.232;2023-04-15T23:55:41;382.85;;;92.70;;
40653;SDS011;26344;45.532;9.232;2023-04-15T23:58:07;375.10;;;88.10;;
